»·PEaware :: QXE2907 KSLC-KSEA

QXE2907 :: KSLC-KSEA

FLIGHT INFORMATION

Flight Status: Arrived
Operator:
Horizon Air
More flights by this operator :: More flights under this callsign
Pilot: Thomas D. (10387)
Aircraft: DEHAVILLAND DASH 8 400
(DH8D)
More flights by this aircraft type
Origin: KSLC Salt Lake City Intl
United States
Destination: KSEA Seattle-Tacoma Intl
United States
More flights between these airports :: More routes between these airports
Route: +SLC3 TWF BOI PDT CHINS2
File this flight plan on PilotEdge
Remarks:
Altitude:
(Current/Filed)
24,000ft
Speed:
(Current/Filed)
360kts
Departed: 19-May-17 01:01 PM
Arrived: 19-May-17 03:21 PM
Distance/Time
Traveled:
597nm/2:20
Distance/Time
To Go:
Arrived

Flight Plot

Page will automatically refresh every two minutes.

Flight plan parsing failed; only flown route is shown


Map Options




Map Legend


Flown Route
Filed Route
Departure Airport
Arrival Airport
Navaid (VOR, NDB)
Fix

Horizontal Profiles

Position Reports

Time Latitude Longitude Heading Altitude Ground
Speed
19-May-17 12:18 40.786656 -111.986107 208 4234ft 0kts
19-May-17 12:19 40.786656 -111.986107 208 4234ft 0kts
19-May-17 12:20 40.786656 -111.986107 208 4234ft 0kts
19-May-17 12:21 40.786656 -111.986107 208 4234ft 0kts
19-May-17 12:22 40.786656 -111.986107 208 4234ft 0kts
19-May-17 12:23 40.786656 -111.986107 208 4234ft 0kts
19-May-17 12:24 40.786656 -111.986107 208 4234ft 0kts
19-May-17 12:25 40.786656 -111.986107 208 4234ft 0kts
19-May-17 12:26 40.786656 -111.986107 208 4234ft 0kts
19-May-17 12:27 40.786656 -111.986107 208 4234ft 0kts
19-May-17 12:28 40.786656 -111.986107 208 4234ft 0kts
19-May-17 12:29 40.786656 -111.986107 208 4234ft 0kts
19-May-17 12:30 40.786656 -111.986107 208 4234ft 0kts
19-May-17 12:31 40.786656 -111.986107 208 4234ft 0kts
19-May-17 12:32 40.786656 -111.986107 208 4234ft 0kts
19-May-17 12:33 40.786656 -111.986107 208 4234ft 0kts
19-May-17 12:34 40.786656 -111.986107 208 4234ft 0kts
19-May-17 12:35 40.786656 -111.986107 208 4234ft 0kts
19-May-17 12:36 40.786656 -111.986107 208 4234ft 0kts
19-May-17 12:37 40.786656 -111.986107 208 4234ft 0kts
19-May-17 12:38 40.786656 -111.986107 208 4234ft 0kts
19-May-17 12:39 40.786656 -111.986107 208 4234ft 0kts
19-May-17 12:40 40.786656 -111.986107 208 4234ft 0kts
19-May-17 12:41 40.786656 -111.986107 208 4234ft 0kts
19-May-17 12:42 40.786656 -111.986107 208 4234ft 0kts
19-May-17 12:43 40.786656 -111.986107 208 4234ft 0kts
19-May-17 12:44 40.786656 -111.986107 208 4234ft 0kts
19-May-17 12:45 40.786656 -111.986107 208 4234ft 0kts
19-May-17 12:46 40.786656 -111.986107 208 4234ft 0kts
19-May-17 12:47 40.786656 -111.986107 208 4234ft 0kts
19-May-17 12:48 40.786881 -111.985755 271 4234ft 2kts
19-May-17 12:49 40.786815 -111.985471 293 4234ft 0kts
19-May-17 12:50 40.786815 -111.985471 293 4234ft 0kts
19-May-17 12:51 40.786815 -111.985471 293 4234ft 0kts
19-May-17 12:52 40.786815 -111.985471 293 4234ft 0kts
19-May-17 12:53 40.786815 -111.985471 293 4234ft 0kts
19-May-17 12:54 40.787422 -111.987240 294 4234ft 8kts
19-May-17 12:55 40.786311 -111.988443 164 4234ft 11kts
19-May-17 12:56 40.787184 -111.990717 316 4234ft 5kts
19-May-17 12:57 40.787080 -111.993316 265 4234ft 12kts
19-May-17 12:58 40.784013 -111.994305 174 4234ft 16kts
19-May-17 12:59 40.779145 -111.993740 174 4234ft 18kts
19-May-17 13:00 40.775286 -111.993667 257 4234ft 8kts
19-May-17 13:01 40.775233 -111.994388 265 4234ft 0kts
19-May-17 13:02 40.775199 -111.994993 265 4234ft 8kts
19-May-17 13:03 40.782653 -111.996375 354 4234ft 105kts
19-May-17 13:04 40.824621 -112.001365 349 5779ft 158kts
19-May-17 13:05 40.872472 -112.009030 349 8147ft 174kts
19-May-17 13:06 40.927199 -112.018879 352 10230ft 205kts
19-May-17 13:07 40.983154 -112.029018 351 12160ft 201kts
19-May-17 13:08 41.038801 -112.040184 341 13648ft 205kts
19-May-17 13:09 41.077805 -112.096425 312 15036ft 211kts
19-May-17 13:10 41.114729 -112.157326 312 16274ft 213kts
19-May-17 13:11 41.152047 -112.218941 312 17388ft 215kts
19-May-17 13:12 41.189700 -112.281084 312 18408ft 218kts
19-May-17 13:13 41.227803 -112.344246 312 19363ft 220kts
19-May-17 13:14 41.266716 -112.408879 313 20239ft 223kts
19-May-17 13:15 41.305793 -112.473911 313 21025ft 226kts
19-May-17 13:16 41.345240 -112.539601 313 21762ft 228kts
19-May-17 13:17 41.385081 -112.606090 313 22450ft 230kts
19-May-17 13:18 41.425171 -112.673222 313 23087ft 231kts
19-May-17 13:19 41.465411 -112.740821 314 23678ft 233kts
19-May-17 13:20 41.506041 -112.809042 314 24137ft 238kts
19-May-17 13:21 41.548848 -112.880918 314 24190ft 255kts
19-May-17 13:22 41.594081 -112.956971 314 24190ft 269kts
19-May-17 13:23 41.641147 -113.036416 314 24192ft 278kts
19-May-17 13:24 41.690102 -113.119272 314 24187ft 290kts
19-May-17 13:25 41.740258 -113.204553 313 24184ft 297kts
19-May-17 13:26 41.790832 -113.290801 313 24178ft 297kts
19-May-17 13:27 41.841163 -113.376984 313 24176ft 292kts
19-May-17 13:28 41.890519 -113.461770 313 24174ft 286kts
19-May-17 13:29 41.938715 -113.544753 313 24171ft 279kts
19-May-17 13:30 41.985889 -113.626149 314 24169ft 273kts
19-May-17 13:31 42.032207 -113.706200 314 24171ft 270kts
19-May-17 13:32 42.079213 -113.787477 314 24168ft 273kts
19-May-17 13:33 42.125917 -113.868380 313 24165ft 278kts
19-May-17 13:34 42.165375 -113.936926 313 24164ft 282kts
19-May-17 13:35 42.221372 -114.034570 313 24172ft 287kts
19-May-17 13:36 42.262214 -114.105862 313 24161ft 291kts
19-May-17 13:37 42.319739 -114.206571 313 24162ft 293kts
19-May-17 13:38 42.369313 -114.293753 313 24168ft 297kts
19-May-17 13:39 42.411302 -114.367880 313 24165ft 300kts
19-May-17 13:40 42.461913 -114.457371 312 24165ft 303kts
19-May-17 13:41 42.524075 -114.558559 317 24165ft 302kts
19-May-17 13:42 42.570655 -114.629351 316 24165ft 303kts
19-May-17 13:43 42.625853 -114.714872 316 24164ft 304kts
19-May-17 13:44 42.690438 -114.815357 315 24163ft 305kts
19-May-17 13:45 42.736647 -114.887516 315 24162ft 305kts
19-May-17 13:46 42.792144 -114.974445 315 24160ft 306kts
19-May-17 13:47 42.847561 -115.061360 315 24156ft 306kts
19-May-17 13:48 42.902657 -115.148231 315 24151ft 305kts
19-May-17 13:49 42.957959 -115.235522 315 24146ft 305kts
19-May-17 13:50 43.012940 -115.322652 314 24135ft 305kts
19-May-17 13:51 43.067926 -115.410002 314 24127ft 305kts
19-May-17 13:52 43.122582 -115.497096 314 24122ft 305kts
19-May-17 13:53 43.177495 -115.584850 314 24119ft 305kts
19-May-17 13:54 43.232283 -115.672808 314 24118ft 305kts
19-May-17 13:55 43.287058 -115.760786 313 24119ft 305kts
19-May-17 13:56 43.341664 -115.848915 313 24121ft 305kts
19-May-17 13:57 43.396205 -115.937171 313 24123ft 306kts
19-May-17 13:58 43.450768 -116.025613 313 24126ft 306kts
19-May-17 13:59 43.505202 -116.114323 312 24127ft 306kts
19-May-17 14:00 43.560651 -116.202441 319 24127ft 304kts
19-May-17 14:01 43.623713 -116.277984 320 24128ft 304kts
19-May-17 14:02 43.686370 -116.354134 320 24124ft 304kts
19-May-17 14:03 43.748506 -116.430300 320 24125ft 302kts
19-May-17 14:04 43.810672 -116.506618 320 24124ft 303kts
19-May-17 14:05 43.873306 -116.583848 320 24116ft 303kts
19-May-17 14:06 43.936148 -116.661544 320 24118ft 304kts
19-May-17 14:07 43.999034 -116.739419 320 24120ft 303kts
19-May-17 14:08 44.061801 -116.817369 319 24120ft 304kts
19-May-17 14:09 44.124443 -116.895541 319 24119ft 304kts
19-May-17 14:10 44.187382 -116.974327 319 24120ft 305kts
19-May-17 14:11 44.250205 -117.053128 319 24120ft 305kts
19-May-17 14:12 44.312705 -117.131716 319 24122ft 305kts
19-May-17 14:13 44.375249 -117.210708 318 24124ft 306kts
19-May-17 14:14 44.437917 -117.290000 318 24128ft 306kts
19-May-17 14:15 44.500384 -117.369364 318 24131ft 306kts
19-May-17 14:16 44.562960 -117.448958 318 24133ft 306kts
19-May-17 14:17 44.625399 -117.528803 318 24135ft 306kts
19-May-17 14:18 44.687664 -117.608572 318 24136ft 306kts
19-May-17 14:19 44.749831 -117.688415 318 24137ft 306kts
19-May-17 14:20 44.812025 -117.768608 318 24132ft 306kts
19-May-17 14:21 44.874297 -117.849151 318 24138ft 304kts
19-May-17 14:22 44.936301 -117.929545 318 24136ft 305kts
19-May-17 14:23 44.998489 -118.010385 317 24133ft 306kts
19-May-17 14:24 45.060991 -118.091888 317 24131ft 307kts
19-May-17 14:25 45.123114 -118.173373 317 24129ft 308kts
19-May-17 14:26 45.185281 -118.254890 317 24130ft 308kts
19-May-17 14:27 45.247618 -118.337105 317 24135ft 308kts
19-May-17 14:28 45.309744 -118.419189 317 24144ft 308kts
19-May-17 14:29 45.371593 -118.501157 317 24149ft 308kts
19-May-17 14:30 45.433767 -118.583788 317 24152ft 308kts
19-May-17 14:31 45.495951 -118.666800 317 24146ft 308kts
19-May-17 14:32 45.558046 -118.749873 317 24128ft 309kts
19-May-17 14:33 45.620154 -118.833196 316 24110ft 309kts
19-May-17 14:34 45.682366 -118.917052 316 24102ft 309kts
19-May-17 14:35 45.739410 -119.006859 310 24098ft 309kts
19-May-17 14:36 45.794323 -119.100207 310 24091ft 309kts
19-May-17 14:37 45.849441 -119.193520 310 24084ft 309kts
19-May-17 14:38 45.904424 -119.287040 310 24082ft 309kts
19-May-17 14:39 45.959393 -119.380780 310 24078ft 309kts
19-May-17 14:40 46.014108 -119.474383 310 24082ft 309kts
19-May-17 14:41 46.069002 -119.568678 310 24082ft 309kts
19-May-17 14:42 46.123719 -119.663037 310 24081ft 310kts
19-May-17 14:43 46.178458 -119.757720 309 24078ft 310kts
19-May-17 14:44 46.225158 -119.838705 309 24081ft 308kts
19-May-17 14:45 46.273532 -119.922846 309 24080ft 307kts
19-May-17 14:46 46.327641 -120.017258 309 24073ft 307kts
19-May-17 14:47 46.381436 -120.111302 309 24082ft 304kts
19-May-17 14:48 46.434925 -120.205307 309 24082ft 305kts
19-May-17 14:49 46.488433 -120.299695 309 24081ft 306kts
19-May-17 14:50 46.542017 -120.394462 309 24081ft 306kts
19-May-17 14:51 46.594167 -120.492011 304 24082ft 307kts
19-May-17 14:52 46.641558 -120.593692 304 24082ft 307kts
19-May-17 14:53 46.689861 -120.694955 304 24085ft 307kts
19-May-17 14:54 46.737043 -120.794416 305 23099ft 303kts
19-May-17 14:55 46.784842 -120.895666 304 21261ft 308kts
19-May-17 14:56 46.832879 -120.997538 304 19436ft 309kts
19-May-17 14:57 46.880300 -121.098458 304 17619ft 299kts
19-May-17 14:58 46.926001 -121.196145 304 15871ft 287kts
19-May-17 14:59 46.969580 -121.289582 303 14204ft 274kts
19-May-17 15:00 47.011271 -121.379380 304 12610ft 263kts
19-May-17 15:01 47.051424 -121.466180 303 11069ft 263kts
19-May-17 15:02 47.092740 -121.555882 303 10207ft 266kts
19-May-17 15:03 47.134497 -121.646525 303 10171ft 274kts
19-May-17 15:04 47.177001 -121.739214 303 10168ft 277kts
19-May-17 15:05 47.219834 -121.832985 303 10149ft 279kts
19-May-17 15:06 47.256259 -121.912963 303 9989ft 266kts
19-May-17 15:07 47.295706 -121.999769 303 9985ft 253kts
19-May-17 15:08 47.328611 -122.072405 303 9982ft 260kts
19-May-17 15:09 47.377785 -122.149528 336 9980ft 273kts
19-May-17 15:10 47.447734 -122.182598 342 9970ft 255kts
19-May-17 15:11 47.515560 -122.210081 349 9111ft 256kts
19-May-17 15:12 47.586466 -122.200461 6 8107ft 247kts
19-May-17 15:13 47.648731 -122.189118 6 6995ft 216kts
19-May-17 15:14 47.707607 -122.179980 350 5521ft 217kts
19-May-17 15:15 47.728305 -122.245390 266 4976ft 175kts
19-May-17 15:16 47.709747 -122.303698 190 4989ft 181kts
19-May-17 15:17 47.660969 -122.305965 180 4286ft 161kts
19-May-17 15:18 47.627414 -122.306230 180 3583ft 142kts
19-May-17 15:19 47.586781 -122.306591 181 2833ft 152kts
19-May-17 15:20 47.543436 -122.307041 181 1985ft 146kts
19-May-17 15:21 47.506771 -122.307509 182 1338ft 127kts
19-May-17 15:22 47.470692 -122.307721 181 656ft 128kts
19-May-17 15:23 47.447542 -122.307940 180 440ft 16kts
19-May-17 15:24 47.445231 -122.306337 178 440ft 8kts
19-May-17 15:25 47.444226 -122.306372 179 440ft 5kts
19-May-17 15:26 47.442327 -122.306374 179 440ft 9kts

Navigation Log

Ident Type
Flight plan parsing failed, navigation log unavailable